createdAt,value
2022-10-19T00:04:17.161Z,21.13
2022-10-19T00:09:19.613Z,59.88
2022-10-19T00:14:23.445Z,56.65
2022-10-19T00:19:27.599Z,65.40
2022-10-19T00:24:29.550Z,47.20
2022-10-19T00:29:31.526Z,32.35
2022-10-19T00:34:33.456Z,33.25
2022-10-19T00:39:35.389Z,24.52
2022-10-19T00:44:37.321Z,21.55
2022-10-19T00:49:43.016Z,13.18
2022-10-19T00:54:46.399Z,15.45
2022-10-19T00:59:48.349Z,18.50
2022-10-19T01:04:52.100Z,16.42
2022-10-19T01:09:54.856Z,14.82
2022-10-19T01:15:06.732Z,17.48
2022-10-19T01:20:27.551Z,20.50
2022-10-19T01:26:00.199Z,13.35
2022-10-19T01:31:05.199Z,16.10
2022-10-19T01:36:38.236Z,13.40
2022-10-19T01:41:52.148Z,15.20
2022-10-19T01:47:19.673Z,12.77
2022-10-19T01:52:23.324Z,15.50
2022-10-19T01:57:37.705Z,16.45
2022-10-19T02:02:45.315Z,14.02
2022-10-19T02:07:53.479Z,15.60
2022-10-19T02:12:55.610Z,11.73
2022-10-19T02:17:59.986Z,17.27
2022-10-19T02:23:06.088Z,13.32
2022-10-19T02:28:07.961Z,13.85
2022-10-19T02:33:10.109Z,12.63
2022-10-19T02:38:16.700Z,14.55
2022-10-19T02:43:23.272Z,14.98
2022-10-19T02:48:26.509Z,16.42
2022-10-19T02:53:29.080Z,10.85
2022-10-19T02:58:30.937Z,11.73
2022-10-19T03:03:32.933Z,11.77
2022-10-19T03:08:35.001Z,16.95
2022-10-19T03:13:36.859Z,17.80
2022-10-19T03:18:39.017Z,15.27
2022-10-19T03:23:41.322Z,17.17
2022-10-19T03:28:43.214Z,15.45
2022-10-19T03:33:45.705Z,12.73
2022-10-19T03:38:49.644Z,11.88
2022-10-19T03:43:51.850Z,13.55
2022-10-19T03:48:54.362Z,13.10
2022-10-19T03:54:02.754Z,14.38
2022-10-19T03:59:05.802Z,13.57
2022-10-19T04:04:11.536Z,16.70
2022-10-19T04:09:16.428Z,14.18
2022-10-19T04:14:31.657Z,14.98
2022-10-19T04:19:35.027Z,19.70
2022-10-19T04:24:37.025Z,16.02
2022-10-19T04:29:38.954Z,12.68
2022-10-19T04:34:41.002Z,16.52
2022-10-19T04:39:43.943Z,16.10
2022-10-19T04:44:45.841Z,16.90
2022-10-19T04:49:47.800Z,11.48
2022-10-19T04:54:49.758Z,17.40
2022-10-19T04:59:51.789Z,12.70
2022-10-19T05:04:53.713Z,16.50
2022-10-19T05:09:55.647Z,12.65
2022-10-19T05:14:57.612Z,17.98
2022-10-19T05:19:59.713Z,16.60
2022-10-19T05:25:01.647Z,14.10
2022-10-19T05:30:04.702Z,15.02
2022-10-19T05:35:12.358Z,18.83
2022-10-19T05:40:14.425Z,19.05
2022-10-19T05:45:16.359Z,14.88
2022-10-19T05:50:18.265Z,14.40
2022-10-19T05:55:20.315Z,15.70
2022-10-19T06:00:22.492Z,14.70
2022-10-19T06:05:24.480Z,18.35
2022-10-19T06:10:26.456Z,12.55
2022-10-19T06:15:28.315Z,16.85
2022-10-19T06:20:30.692Z,15.85
2022-10-19T06:25:33.720Z,17.08
2022-10-19T06:30:39.666Z,21.10
2022-10-19T06:35:43.231Z,19.88
2022-10-19T06:40:45.235Z,20.13
2022-10-19T06:45:47.305Z,21.60
2022-10-19T06:50:59.850Z,21.52
2022-10-19T06:56:04.040Z,18.25
2022-10-19T07:01:10.472Z,18.73
2022-10-19T07:06:13.460Z,14.07
2022-10-19T07:11:17.848Z,23.85
2022-10-19T07:16:21.252Z,17.25
2022-10-19T07:21:24.164Z,15.80
2022-10-19T07:26:28.153Z,23.10
2022-10-19T07:31:30.732Z,17.60
2022-10-19T07:36:34.199Z,14.68
2022-10-19T07:41:36.266Z,17.50
2022-10-19T07:46:38.891Z,23.67
2022-10-19T07:51:42.068Z,14.95
2022-10-19T07:56:44.136Z,18.67
2022-10-19T08:01:47.751Z,21.08
2022-10-19T08:06:50.217Z,22.55
2022-10-19T08:11:52.229Z,22.75
2022-10-19T08:16:54.228Z,12.65
2022-10-19T08:21:56.148Z,17.80
2022-10-19T08:26:58.144Z,22.85
2022-10-19T08:32:00.327Z,16.35
2022-10-19T08:37:10.238Z,22.08
2022-10-19T08:42:47.937Z,16.25
2022-10-19T08:47:56.152Z,46.05
2022-10-19T08:53:06.915Z,22.00
2022-10-19T08:58:24.172Z,19.60
2022-10-19T09:03:54.343Z,21.45
2022-10-19T09:08:57.087Z,21.27
2022-10-19T09:14:19.281Z,22.27
2022-10-19T09:19:26.366Z,22.40
2022-10-19T09:24:30.155Z,27.38
2022-10-19T09:29:50.301Z,22.38
2022-10-19T09:34:55.731Z,19.27
2022-10-19T09:39:57.977Z,18.52
2022-10-19T09:45:01.784Z,20.00
2022-10-19T09:50:16.175Z,21.85
2022-10-19T09:55:35.355Z,22.10
2022-10-19T10:00:43.906Z,18.00
2022-10-19T10:05:49.283Z,21.77
2022-10-19T10:11:11.948Z,20.35
2022-10-19T10:16:19.154Z,33.00
2022-10-19T10:21:26.065Z,56.50
2022-10-19T10:26:29.038Z,33.50
2022-10-19T10:31:31.347Z,22.83
2022-10-19T10:36:33.496Z,19.35
2022-10-19T10:41:39.060Z,20.75
2022-10-19T10:46:50.941Z,15.45
2022-10-19T10:52:05.923Z,15.75
2022-10-19T10:57:18.710Z,20.95
2022-10-19T11:02:49.788Z,32.60
2022-10-19T11:08:13.117Z,23.77
2022-10-19T11:13:23.622Z,17.55
2022-10-19T11:18:30.133Z,19.58
2022-10-19T11:23:48.570Z,20.88
2022-10-19T11:29:02.995Z,17.92
2022-10-19T11:34:16.115Z,15.27
2022-10-19T11:39:57.104Z,22.30
2022-10-19T11:45:16.807Z,24.33
2022-10-19T11:50:39.233Z,21.00
2022-10-19T11:55:47.064Z,19.63
2022-10-19T12:01:08.534Z,18.88
2022-10-19T12:06:29.622Z,25.30
2022-10-19T12:11:46.668Z,25.13
2022-10-19T12:16:52.418Z,28.27
2022-10-19T12:21:55.897Z,29.55
2022-10-19T12:26:58.056Z,18.65
2022-10-19T12:32:01.388Z,19.05
2022-10-19T12:37:12.371Z,18.95
2022-10-19T12:42:31.473Z,22.23
2022-10-19T12:47:33.610Z,18.35
2022-10-19T12:52:37.718Z,19.05
2022-10-19T12:57:40.323Z,15.38
2022-10-19T13:02:42.520Z,10.88
2022-10-19T13:07:48.804Z,18.38
2022-10-19T13:12:51.530Z,16.45
2022-10-19T13:17:53.433Z,17.20
2022-10-19T13:23:01.146Z,15.70
2022-10-19T13:28:18.149Z,11.77
2022-10-19T13:33:26.048Z,11.10
2022-10-19T13:38:33.111Z,35.75
2022-10-19T13:43:58.364Z,26.35
2022-10-19T13:49:37.597Z,17.10
2022-10-19T13:54:48.295Z,19.10
2022-10-19T13:59:56.137Z,14.80
2022-10-19T14:05:23.208Z,45.90
2022-10-19T14:10:32.856Z,19.20
2022-10-19T14:15:40.607Z,17.98
2022-10-19T14:20:42.524Z,18.48
2022-10-19T14:26:00.376Z,16.25
2022-10-19T14:31:08.786Z,14.88
2022-10-19T14:36:17.622Z,12.60
2022-10-19T14:41:27.193Z,12.38
2022-10-19T14:46:33.939Z,15.50
2022-10-19T14:51:46.722Z,22.88
2022-10-19T14:56:51.031Z,18.40
2022-10-19T15:01:55.706Z,14.00
2022-10-19T15:06:59.104Z,12.68
2022-10-19T15:12:12.761Z,10.32
2022-10-19T15:17:25.835Z,13.68
2022-10-19T15:22:34.141Z,18.15
2022-10-19T15:27:46.236Z,12.77
2022-10-19T15:33:01.782Z,22.48
2022-10-19T15:38:14.938Z,22.02
2022-10-19T15:43:34.830Z,32.00
2022-10-19T15:48:44.490Z,22.63
2022-10-19T15:53:46.391Z,15.20
2022-10-19T15:58:52.863Z,18.25
2022-10-19T16:03:55.248Z,10.70
2022-10-19T16:08:58.833Z,9.20
2022-10-19T16:14:00.980Z,15.35
2022-10-19T16:19:04.199Z,17.13
2022-10-19T16:24:06.079Z,11.50
2022-10-19T16:29:08.068Z,11.73
2022-10-19T16:34:10.040Z,10.45
2022-10-19T16:39:12.237Z,14.73
2022-10-19T16:44:14.136Z,12.00
2022-10-19T16:49:15.865Z,13.10
2022-10-19T16:54:18.363Z,14.93
2022-10-19T16:59:20.270Z,20.95
2022-10-19T17:04:22.238Z,23.40
2022-10-19T17:09:42.312Z,11.30
2022-10-19T17:14:44.977Z,10.73
2022-10-19T17:19:47.699Z,14.88
2022-10-19T17:24:49.690Z,27.90
2022-10-19T17:29:51.634Z,16.05
2022-10-19T17:34:54.618Z,14.07
2022-10-19T17:39:56.546Z,9.85
2022-10-19T17:44:58.474Z,12.13
2022-10-19T17:50:00.397Z,10.00
2022-10-19T17:55:17.741Z,5.25
2022-10-19T18:00:20.484Z,17.08
2022-10-19T18:05:25.602Z,16.20
2022-10-19T18:10:27.540Z,9.57
2022-10-19T18:15:29.428Z,7.80
2022-10-19T18:20:31.391Z,8.35
2022-10-19T18:25:53.533Z,11.15
2022-10-19T18:30:56.315Z,10.38
2022-10-19T18:35:58.737Z,21.10
2022-10-19T18:41:08.246Z,15.07
2022-10-19T18:46:10.713Z,11.15
2022-10-19T18:51:14.615Z,14.63
2022-10-19T19:01:25.152Z,7.68
2022-10-19T19:06:29.595Z,8.88
2022-10-19T19:11:36.082Z,32.05
2022-10-19T19:16:40.382Z,17.45
2022-10-19T19:21:44.695Z,8.70
2022-10-19T19:26:50.726Z,7.07
2022-10-19T19:31:53.709Z,5.95
2022-10-19T19:36:55.807Z,6.85
2022-10-19T19:41:57.697Z,9.38
2022-10-19T19:47:01.111Z,11.02
2022-10-19T19:52:09.469Z,14.05
2022-10-19T19:57:11.694Z,7.90
2022-10-19T20:02:13.621Z,10.45
2022-10-19T20:07:15.580Z,6.20
2022-10-19T20:12:17.501Z,6.85
2022-10-19T20:17:23.766Z,26.88
2022-10-19T20:22:26.500Z,20.25
2022-10-19T20:27:28.896Z,9.50
2022-10-19T20:32:30.860Z,19.38
2022-10-19T20:37:33.525Z,10.43
2022-10-19T20:42:36.861Z,11.57
2022-10-19T20:47:40.132Z,8.63
2022-10-19T20:52:42.098Z,5.85
2022-10-19T20:57:44.059Z,5.30
2022-10-19T21:02:47.692Z,4.53
2022-10-19T21:07:49.586Z,4.65
2022-10-19T21:12:51.760Z,4.00
2022-10-19T21:17:53.762Z,9.52
2022-10-19T21:22:55.744Z,8.60
2022-10-19T21:27:57.658Z,11.90
2022-10-19T21:32:59.613Z,7.00
2022-10-19T21:38:01.932Z,8.82
2022-10-19T21:43:03.932Z,10.10
2022-10-19T21:48:06.046Z,6.57
2022-10-19T21:53:07.989Z,8.57
2022-10-19T21:58:10.169Z,9.77
2022-10-19T22:08:21.714Z,6.65
2022-10-19T22:13:23.577Z,9.52
2022-10-19T22:18:25.428Z,5.90
2022-10-19T22:23:28.099Z,7.10
2022-10-19T22:28:29.906Z,9.82
2022-10-19T22:33:31.801Z,7.53
2022-10-19T22:38:40.726Z,5.68
2022-10-19T22:44:39.615Z,5.13
2022-10-19T22:50:56.162Z,5.28
2022-10-19T22:56:16.954Z,7.60
2022-10-19T23:01:19.295Z,6.07
2022-10-19T23:06:21.818Z,7.57
2022-10-19T23:11:23.760Z,7.55
2022-10-19T23:21:33.376Z,10.13
2022-10-19T23:26:35.414Z,10.32
2022-10-19T23:31:38.328Z,9.38
2022-10-19T23:36:40.320Z,6.60
2022-10-19T23:41:42.182Z,7.20
2022-10-19T23:46:44.040Z,6.43
2022-10-19T23:51:46.000Z,8.63
2022-10-19T23:56:47.898Z,7.45
